Boston, Massachusetts
Traffic Map
Current Weather Conditions
Boston, Massachusetts
Few Clouds
Few Clouds
22°
Feels Like: 22°
Wind Chill: 22° Ceiling: Unl
Heat Index: 22° Visibility: 10mi
Dew Point: 19° Wind: 9mph
Humidity: 84% Direction: 200° (SSW)
Pressure: 30.01in Gusts: 0mph
Raw Report DataKBOS 280254Z 20008KT 10SM FEW130 22/19 A3001 RMK AO2 SLP162 T02220194 50008
Traffic Incident Summary
Active as of:
Severity:
Category:
InformationThere was an issue retrieving the traffic information for this location. Please try a different location or try again shortly.
Advertisements
Track Severe Weather on mobile